Air Resources Laboratory banner image
Air Resources Laboratory web site National Oceanic and Atmospheric Administration (NOAA)

co metar


KAKO 110853Z AUTO 18015KT 10SM CLR 22/06 A3029 RMK AO2 SLP186 T02170061 56007=
KALS 110852Z AUTO 09005KT 10SM CLR 11/09 A3050 RMK AO2 SLP231 T01060094 58002=
KAPA 110853Z 17009KT 10SM CLR 21/12 A3032 RMK AO2 SLP180 T02060117 57008=
KASE 110853Z AUTO 20006KT 10SM FEW120 17/06 A3046 RMK AO2 SLP169 T01670056
 53003=
KBJC 110855Z AUTO 23005KT 10SM CLR 19/09 A3029 RMK AO2=
KCAG 110853Z AUTO 00000KT 10SM CLR 16/08 A3031 RMK AO2 SLP170 T01610083 53007=
KCEZ 110853Z AUTO 00000KT 10SM BKN095 21/12 A3035 RMK AO2 SLP198 60001
 T02110122 50001=
KCOS 110854Z 08006KT 10SM CLR 18/12 A3040 RMK AO2 SLP202 T01780122 58011=
KDEN 110853Z 17013KT 10SM CLR 21/12 A3027 RMK AO2 SLP156 T02060117 58011=
KDRO 110853Z AUTO 03004KT 10SM FEW085 18/12 A3044 RMK AO2 SLP203 60000
 T01780117 58003=
KEEO 110853Z AUTO 00000KT 10SM FEW120 17/09 A3035 RMK AO2 LTG DSNT W AND NW
 SLP169 T01720089 53013=
KEGE 110856Z AUTO 09006KT 10SM CLR 15/08 A3041 RMK AO2 SLP184 T01500078 51009=
KFNL 110856Z 36006KT 10SM CLR 19/12 A3026 RMK AO2 SLP172 T01940122 56005=
KGJT 110853Z AUTO 34008KT 10SM SCT110 27/09 A3022 RMK AO2 SLP146 T02720089
 53012=
KGUC 110856Z AUTO 36005KT 10SM CLR 13/06 A3051 RMK AO2 SLP227 T01280056 53002=
KGXY 110856Z 13005KT 10SM CLR 22/13 A3024 RMK AO2 SLP186 T02170128 56009 $=
KHDN 110856Z 11009KT 10SM CLR 19/06 A3035 RMK AO2 SLP171 T01890061 53005=
KITR 110853Z AUTO 18008KT 10SM CLR 18/11 A3029 RMK AO2 SLP198 T01830106 58006=
KLAA 110853Z AUTO 04005KT 10SM CLR 17/12 A3024 RMK AO2 SLP189 T01720117 58006=
KLHX 110853Z AUTO 16004KT 10SM CLR 21/13 A3028 RMK AO2 SLP184 T02060133 58010 $=
KLIC 110855Z AUTO 11006KT 10SM CLR 16/09 A3035 RMK AO2 SLP195 T01560094 56006=
KLXV 110853Z AUTO 08004KT 10SM CLR 08/04 A3068 RMK AO2 SLP208 T00830044 58003=
KMTJ 110853Z AUTO 16006KT 10SM CLR 22/09 A3032 RMK AO2 SLP167 T02220089 51009=
KPUB 110853Z AUTO 05007KT 10SM CLR 20/13 A3028 RMK AO2 SLP180 T02000128 58006=
KRIL 110853Z AUTO 27004KT 10SM FEW110 22/09 A3028 RMK AO2 SLP162 T02170094
 53010=
KTAD 110854Z AUTO 24008KT 10SM CLR 17/13 A3038 RMK AO2 SLP201 T01720133 57007=